Time;durP1;ratioP1;P1;durP2;ratioP2;P2;SDS_P1;SDS_P2;PMS_P1;PMS_P2;Temp;Humidity;BMP_temperature;BMP_pressure;BME280_temperature;BME280_humidity;BME280_pressure;Samples;Min_cycle;Max_cycle;Signal;HPM_P1;HPM_P2
2022/03/29 00:00:24;;;;;;;13.07;5.03;;;;;;;;;;5129550;27;20035;-84
2022/03/29 00:02:53;;;;;;;9.15;5.30;;;;;;;;;;5119159;27;20496;-84
2022/03/29 00:05:20;;;;;;;9.35;5.05;;;;;;;;;;5126346;27;20047;-84
2022/03/29 00:07:48;;;;;;;12.15;4.88;;;;;;;;;;5122302;27;20065;-84
2022/03/29 00:10:14;;;;;;;9.73;4.55;;;;;;;;;;5123476;27;20082;-84
2022/03/29 00:12:41;;;;;;;11.48;5.07;;;;;;;;;;5136681;27;20043;-84
2022/03/29 00:15:09;;;;;;;7.15;4.47;;;;;;;;;;5132189;27;20075;-84
2022/03/29 00:17:35;;;;;;;10.75;5.05;;;;;;;;;;5127169;27;20051;-84
2022/03/29 00:20:03;;;;;;;8.88;5.03;;;;;;;;;;5124559;27;20097;-84
2022/03/29 00:22:30;;;;;;;8.48;4.72;;;;;;;;;;5126340;27;20044;-84
2022/03/29 00:24:58;;;;;;;8.02;4.75;;;;;;;;;;5122839;27;20074;-84
2022/03/29 00:27:24;;;;;;;8.10;5.10;;;;;;;;;;5119544;27;20093;-84
2022/03/29 00:29:51;;;;;;;11.00;5.55;;;;;;;;;;5130039;27;20088;-84
2022/03/29 00:32:17;;;;;;;7.93;4.90;;;;;;;;;;5118470;27;20753;-84
2022/03/29 00:34:44;;;;;;;10.70;5.10;;;;;;;;;;5132095;27;20479;-84
2022/03/29 00:37:11;;;;;;;8.90;5.35;;;;;;;;;;5127697;27;20035;-84
2022/03/29 00:39:37;;;;;;;11.52;5.45;;;;;;;;;;5128741;27;20617;-84
2022/03/29 00:42:05;;;;;;;9.75;5.80;;;;;;;;;;5123459;27;20507;-84
2022/03/29 00:44:33;;;;;;;10.82;5.13;;;;;;;;;;5120290;27;20439;-84
2022/03/29 00:47:00;;;;;;;8.57;5.13;;;;;;;;;;5131346;27;20082;-84
2022/03/29 00:49:27;;;;;;;10.68;5.18;;;;;;;;;;5117484;27;20075;-84
2022/03/29 00:51:58;;;;;;;9.52;5.00;;;;;;;;;;5132343;27;20630;-84
2022/03/29 00:54:25;;;;;;;11.32;5.07;;;;;;;;;;5125801;27;20077;-84
2022/03/29 00:56:51;;;;;;;9.25;5.05;;;;;;;;;;5130463;27;20099;-84
2022/03/29 00:59:19;;;;;;;10.90;5.22;;;;;;;;;;5119479;27;20075;-84
2022/03/29 01:01:46;;;;;;;9.85;4.95;;;;;;;;;;5120687;27;20511;-84
2022/03/29 01:04:13;;;;;;;9.23;5.20;;;;;;;;;;5123336;27;20452;-84
2022/03/29 01:06:40;;;;;;;8.77;5.60;;;;;;;;;;5126460;27;20046;-84
2022/03/29 01:09:06;;;;;;;10.90;5.50;;;;;;;;;;5122255;27;20055;-84
2022/03/29 01:11:33;;;;;;;10.35;6.00;;;;;;;;;;5123501;27;20085;-84
2022/03/29 01:14:01;;;;;;;10.45;5.72;;;;;;;;;;5115497;27;20119;-84
2022/03/29 01:19:13;;;;;;;14.48;6.00;;;;;;;;;;5115288;27;20181;-84
2022/03/29 01:21:41;;;;;;;10.82;5.05;;;;;;;;;;5119279;27;20514;-84
2022/03/29 01:24:11;;;;;;;12.02;5.38;;;;;;;;;;5130045;27;20086;-84
2022/03/29 01:26:38;;;;;;;10.25;5.43;;;;;;;;;;5118997;27;20078;-84
2022/03/29 01:29:06;;;;;;;9.85;5.00;;;;;;;;;;5126949;27;20077;-84
2022/03/29 01:31:34;;;;;;;12.63;5.90;;;;;;;;;;5131855;27;20634;-84
2022/03/29 01:34:00;;;;;;;10.65;5.68;;;;;;;;;;5122381;27;20047;-84
2022/03/29 01:36:28;;;;;;;9.32;5.20;;;;;;;;;;5128715;27;20560;-84
2022/03/29 01:38:55;;;;;;;10.32;4.63;;;;;;;;;;5124834;27;20039;-84
2022/03/29 01:41:22;;;;;;;9.13;5.28;;;;;;;;;;5126347;27;20047;-84
2022/03/29 01:43:49;;;;;;;10.07;5.20;;;;;;;;;;5118255;27;20087;-84
2022/03/29 01:46:16;;;;;;;14.02;5.32;;;;;;;;;;5127713;27;20471;-83
2022/03/29 01:48:42;;;;;;;11.05;5.63;;;;;;;;;;5128404;27;20651;-84
2022/03/29 01:51:10;;;;;;;13.18;5.22;;;;;;;;;;5124748;27;20062;-84
2022/03/29 01:53:37;;;;;;;8.68;4.72;;;;;;;;;;5117686;27;20680;-84
2022/03/29 01:56:04;;;;;;;12.43;5.90;;;;;;;;;;5117280;27;20436;-84
2022/03/29 01:58:32;;;;;;;10.00;4.93;;;;;;;;;;5122958;27;20043;-84
2022/03/29 02:00:59;;;;;;;14.63;5.82;;;;;;;;;;5130227;27;20142;-84
2022/03/29 02:03:26;;;;;;;11.50;5.50;;;;;;;;;;5116938;27;20138;-84
2022/03/29 02:05:53;;;;;;;8.68;5.35;;;;;;;;;;5127326;27;20074;-84
2022/03/29 02:08:20;;;;;;;13.05;5.65;;;;;;;;;;5120667;27;20044;-84
2022/03/29 02:10:47;;;;;;;9.65;4.70;;;;;;;;;;5127456;27;20124;-85
2022/03/29 02:13:14;;;;;;;10.55;6.05;;;;;;;;;;5130558;27;20047;-84
2022/03/29 02:15:42;;;;;;;10.10;5.82;;;;;;;;;;5124682;27;20100;-84
2022/03/29 02:18:09;;;;;;;9.90;4.95;;;;;;;;;;5120304;27;20127;-84
2022/03/29 02:20:35;;;;;;;10.63;5.25;;;;;;;;;;5132925;27;20085;-84
2022/03/29 02:23:03;;;;;;;12.25;6.10;;;;;;;;;;5124064;27;20043;-84
2022/03/29 02:25:30;;;;;;;10.10;4.95;;;;;;;;;;5131365;27;20438;-84
2022/03/29 02:27:57;;;;;;;12.27;5.72;;;;;;;;;;5130107;27;20051;-84
2022/03/29 02:30:23;;;;;;;11.18;5.60;;;;;;;;;;5124135;27;20469;-84
2022/03/29 02:32:51;;;;;;;11.73;5.90;;;;;;;;;;5130479;27;20071;-84
2022/03/29 02:35:18;;;;;;;19.88;6.82;;;;;;;;;;5126648;27;20043;-84
2022/03/29 02:37:45;;;;;;;18.70;6.55;;;;;;;;;;5123305;27;20043;-84
2022/03/29 02:40:13;;;;;;;12.75;5.47;;;;;;;;;;5123481;27;20047;-84
2022/03/29 02:42:44;;;;;;;25.92;8.35;;;;;;;;;;5116542;27;20604;-84
2022/03/29 02:45:13;;;;;;;18.05;6.22;;;;;;;;;;5118760;27;20074;-84
2022/03/29 02:47:39;;;;;;;14.05;5.95;;;;;;;;;;5118779;27;20575;-84
2022/03/29 02:50:09;;;;;;;15.25;6.20;;;;;;;;;;5118827;27;20075;-84
2022/03/29 02:52:43;;;;;;;12.00;5.38;;;;;;;;;;5133197;27;20380;-84
2022/03/29 02:55:10;;;;;;;12.10;5.43;;;;;;;;;;5125513;27;20051;-84
2022/03/29 02:57:36;;;;;;;15.70;6.68;;;;;;;;;;5129191;27;20039;-84
2022/03/29 03:00:05;;;;;;;13.57;5.55;;;;;;;;;;5125956;27;20039;-84
2022/03/29 03:02:32;;;;;;;20.48;6.85;;;;;;;;;;5128992;27;20070;-84
2022/03/29 03:04:59;;;;;;;17.38;7.05;;;;;;;;;;5126328;27;20458;-84
2022/03/29 03:07:28;;;;;;;14.73;6.90;;;;;;;;;;5124676;27;20039;-84
2022/03/29 03:09:55;;;;;;;12.65;5.30;;;;;;;;;;5120176;27;20082;-84
2022/03/29 03:12:21;;;;;;;14.18;5.95;;;;;;;;;;5124148;27;20071;-84
2022/03/29 03:14:49;;;;;;;12.18;5.78;;;;;;;;;;5127928;27;20043;-84
2022/03/29 03:17:15;;;;;;;12.27;5.60;;;;;;;;;;5124563;27;20092;-84
2022/03/29 03:19:43;;;;;;;9.90;5.90;;;;;;;;;;5129185;27;20128;-84
2022/03/29 03:22:10;;;;;;;15.98;6.60;;;;;;;;;;5124502;27;20062;-84
2022/03/29 03:24:38;;;;;;;12.65;5.78;;;;;;;;;;5114205;28;20047;-83
2022/03/29 03:27:06;;;;;;;12.52;6.05;;;;;;;;;;5119862;28;20066;-84
2022/03/29 03:29:33;;;;;;;13.63;5.80;;;;;;;;;;5127461;27;20051;-84
2022/03/29 03:31:59;;;;;;;11.70;5.88;;;;;;;;;;5112447;28;20051;-84
2022/03/29 03:34:26;;;;;;;12.60;6.60;;;;;;;;;;5117290;28;20088;-84
2022/03/29 03:36:53;;;;;;;15.82;6.95;;;;;;;;;;5115116;28;20086;-83
2022/03/29 03:39:20;;;;;;;12.98;6.70;;;;;;;;;;5126638;28;20479;-84
2022/03/29 03:41:48;;;;;;;11.32;5.70;;;;;;;;;;5128826;28;20491;-83
2022/03/29 03:44:15;;;;;;;13.27;6.50;;;;;;;;;;5123203;28;20500;-83
2022/03/29 03:46:41;;;;;;;15.07;5.50;;;;;;;;;;5119702;28;20104;-83
2022/03/29 03:49:08;;;;;;;11.90;5.97;;;;;;;;;;5118792;27;20055;-83
2022/03/29 03:51:35;;;;;;;12.65;5.47;;;;;;;;;;5119775;28;20044;-84
2022/03/29 03:54:01;;;;;;;11.02;5.97;;;;;;;;;;5122917;28;20134;-84
2022/03/29 03:56:28;;;;;;;13.25;6.18;;;;;;;;;;5118575;28;20075;-84
2022/03/29 03:58:56;;;;;;;11.82;5.53;;;;;;;;;;5113565;28;20048;-84
2022/03/29 04:01:26;;;;;;;14.23;7.18;;;;;;;;;;5067237;28;20044;-84
2022/03/29 04:03:55;;;;;;;10.77;5.38;;;;;;;;;;5070695;28;20053;-84
2022/03/29 04:06:22;;;;;;;11.52;6.32;;;;;;;;;;5072128;28;20044;-84
2022/03/29 04:08:48;;;;;;;11.50;6.15;;;;;;;;;;5067041;28;20044;-84
2022/03/29 04:11:15;;;;;;;12.45;5.90;;;;;;;;;;5070543;28;20091;-84
2022/03/29 04:13:41;;;;;;;12.18;6.57;;;;;;;;;;5069139;28;20068;-84
2022/03/29 04:16:09;;;;;;;10.43;5.88;;;;;;;;;;5069698;28;20045;-84
2022/03/29 04:18:36;;;;;;;12.80;5.63;;;;;;;;;;5070777;28;20074;-84
2022/03/29 04:21:04;;;;;;;10.65;6.22;;;;;;;;;;5070438;28;20405;-84
2022/03/29 04:23:31;;;;;;;14.40;6.60;;;;;;;;;;5073434;28;20082;-84
2022/03/29 04:25:58;;;;;;;12.98;5.93;;;;;;;;;;5069077;28;20479;-84
2022/03/29 04:28:25;;;;;;;11.43;5.32;;;;;;;;;;5068459;28;20041;-84
2022/03/29 04:30:55;;;;;;;11.13;6.03;;;;;;;;;;5069063;28;20048;-84
2022/03/29 04:33:23;;;;;;;11.50;7.00;;;;;;;;;;5069982;28;20037;-84
2022/03/29 04:35:49;;;;;;;13.32;5.75;;;;;;;;;;5069270;28;20488;-83
2022/03/29 04:38:16;;;;;;;10.85;5.03;;;;;;;;;;5069856;28;20548;-83
2022/03/29 04:40:42;;;;;;;12.52;6.35;;;;;;;;;;5069081;28;20091;-83
2022/03/29 04:43:09;;;;;;;13.27;6.90;;;;;;;;;;5064586;28;20048;-83
2022/03/29 04:45:36;;;;;;;13.23;6.97;;;;;;;;;;5068854;28;20064;-83
2022/03/29 04:48:03;;;;;;;12.18;7.00;;;;;;;;;;5072788;28;20040;-83
2022/03/29 04:50:31;;;;;;;13.45;7.53;;;;;;;;;;5068360;28;20131;-83
2022/03/29 04:52:58;;;;;;;13.05;6.38;;;;;;;;;;5067640;28;20130;-84
2022/03/29 04:55:25;;;;;;;14.70;6.65;;;;;;;;;;5067358;28;20076;-84
2022/03/29 04:57:53;;;;;;;12.13;7.20;;;;;;;;;;5069072;28;20075;-84
2022/03/29 05:00:21;;;;;;;18.10;6.95;;;;;;;;;;5069517;28;20075;-84
2022/03/29 05:02:48;;;;;;;14.10;6.72;;;;;;;;;;5074488;28;20041;-84
2022/03/29 05:05:15;;;;;;;12.95;6.70;;;;;;;;;;5068834;28;20040;-83
2022/03/29 05:07:43;;;;;;;15.07;7.60;;;;;;;;;;5067903;28;20581;-84
2022/03/29 05:10:11;;;;;;;16.33;8.27;;;;;;;;;;5069140;28;20349;-84
2022/03/29 05:12:41;;;;;;;18.10;7.75;;;;;;;;;;5067945;28;20044;-84
2022/03/29 05:15:08;;;;;;;14.25;6.93;;;;;;;;;;5067798;28;20094;-84
2022/03/29 05:17:35;;;;;;;16.55;7.45;;;;;;;;;;5069548;28;20090;-84
2022/03/29 05:20:02;;;;;;;15.73;7.07;;;;;;;;;;5069601;28;20557;-85
2022/03/29 05:22:29;;;;;;;14.23;5.95;;;;;;;;;;5068941;28;20095;-85
2022/03/29 05:24:58;;;;;;;13.20;6.72;;;;;;;;;;5069564;28;20083;-85
2022/03/29 05:27:24;;;;;;;11.57;6.60;;;;;;;;;;5068419;28;20209;-82
2022/03/29 05:29:51;;;;;;;23.95;7.32;;;;;;;;;;5069160;28;20478;-84
2022/03/29 05:32:18;;;;;;;14.15;7.10;;;;;;;;;;5069131;28;20053;-83
2022/03/29 05:34:52;;;;;;;14.70;7.18;;;;;;;;;;5068684;28;20050;-83
2022/03/29 05:37:18;;;;;;;14.90;6.55;;;;;;;;;;5069297;28;20197;-84
2022/03/29 05:39:45;;;;;;;15.68;7.38;;;;;;;;;;5069163;28;20068;-84
2022/03/29 05:42:13;;;;;;;16.73;6.43;;;;;;;;;;5067297;28;20053;-84
2022/03/29 05:44:40;;;;;;;14.43;6.82;;;;;;;;;;5068208;28;20552;-84
2022/03/29 05:49:51;;;;;;;17.30;7.60;;;;;;;;;;5068191;28;20051;-85
2022/03/29 05:52:18;;;;;;;14.93;7.53;;;;;;;;;;5069086;28;20629;-84
2022/03/29 05:54:51;;;;;;;14.85;7.13;;;;;;;;;;5065837;28;20053;-84
2022/03/29 05:57:20;;;;;;;14.98;6.97;;;;;;;;;;5068714;28;20147;-84
2022/03/29 05:59:46;;;;;;;17.00;8.07;;;;;;;;;;5068298;28;20155;-84
2022/03/29 06:02:13;;;;;;;15.52;7.30;;;;;;;;;;5069312;28;20473;-84
2022/03/29 06:04:40;;;;;;;27.42;7.57;;;;;;;;;;5050513;28;20501;-84
2022/03/29 06:07:07;;;;;;;21.35;8.68;;;;;;;;;;5043158;28;20068;-84
2022/03/29 06:09:34;;;;;;;17.75;7.32;;;;;;;;;;5048914;28;20479;-84
2022/03/29 06:12:02;;;;;;;16.27;7.70;;;;;;;;;;5047590;28;20053;-85
2022/03/29 06:14:30;;;;;;;15.57;7.63;;;;;;;;;;5041300;28;20161;-84
2022/03/29 06:16:56;;;;;;;11.90;7.18;;;;;;;;;;5039898;28;20049;-85
2022/03/29 06:19:23;;;;;;;13.48;7.60;;;;;;;;;;5048864;28;20525;-83
2022/03/29 06:21:49;;;;;;;12.50;7.00;;;;;;;;;;5044743;28;20045;-84
2022/03/29 06:24:16;;;;;;;15.73;7.88;;;;;;;;;;5048364;28;20100;-84
2022/03/29 06:26:43;;;;;;;18.38;8.43;;;;;;;;;;5046754;28;20046;-84
2022/03/29 06:29:10;;;;;;;15.52;7.82;;;;;;;;;;5043045;28;20342;-84
2022/03/29 06:31:39;;;;;;;16.35;7.57;;;;;;;;;;5046565;28;20406;-84
2022/03/29 06:34:06;;;;;;;14.75;8.30;;;;;;;;;;5048472;28;20099;-83
2022/03/29 06:36:33;;;;;;;15.93;7.85;;;;;;;;;;5040783;28;20055;-83
2022/03/29 06:38:59;;;;;;;15.65;7.07;;;;;;;;;;5040002;28;20468;-84
2022/03/29 06:41:27;;;;;;;13.80;7.40;;;;;;;;;;5047566;28;20627;-84
2022/03/29 06:43:53;;;;;;;14.88;8.60;;;;;;;;;;5047686;28;20138;-83
2022/03/29 06:46:20;;;;;;;17.65;9.23;;;;;;;;;;5043824;28;20044;-84
2022/03/29 06:48:48;;;;;;;15.88;7.97;;;;;;;;;;5047527;28;20051;-84
2022/03/29 06:51:15;;;;;;;25.00;8.35;;;;;;;;;;5042799;28;20049;-83
2022/03/29 06:53:42;;;;;;;19.50;8.88;;;;;;;;;;5045776;28;20379;-84
2022/03/29 06:56:09;;;;;;;16.92;9.27;;;;;;;;;;5045107;28;20103;-83
2022/03/29 06:58:35;;;;;;;21.25;9.38;;;;;;;;;;5030064;28;20366;-83
2022/03/29 07:01:03;;;;;;;19.92;10.10;;;;;;;;;;5045095;28;20072;-84
2022/03/29 07:03:30;;;;;;;17.88;8.98;;;;;;;;;;5046662;28;20041;-83
2022/03/29 07:05:59;;;;;;;20.67;9.30;;;;;;;;;;5044785;28;20084;-84
2022/03/29 07:08:25;;;;;;;21.08;10.32;;;;;;;;;;5036460;28;20046;-84
2022/03/29 07:13:37;;;;;;;18.08;9.70;;;;;;;;;;5039089;28;20071;-84
2022/03/29 07:16:05;;;;;;;22.42;10.23;;;;;;;;;;5047437;28;20099;-83
2022/03/29 07:18:32;;;;;;;25.20;10.57;;;;;;;;;;5039005;28;20077;-84
2022/03/29 07:20:59;;;;;;;21.67;10.48;;;;;;;;;;5040454;28;20036;-84
2022/03/29 07:23:26;;;;;;;18.23;9.82;;;;;;;;;;5048327;28;20068;-84
2022/03/29 07:25:53;;;;;;;18.85;10.07;;;;;;;;;;5046959;28;20474;-83
2022/03/29 07:28:20;;;;;;;19.00;10.13;;;;;;;;;;5038469;28;20049;-84
2022/03/29 07:30:47;;;;;;;17.55;10.68;;;;;;;;;;5045238;28;20068;-84
2022/03/29 07:33:14;;;;;;;19.88;10.23;;;;;;;;;;5048799;28;20049;-83
2022/03/29 07:35:41;;;;;;;21.48;11.07;;;;;;;;;;5036283;28;20083;-84
2022/03/29 07:38:09;;;;;;;22.90;11.63;;;;;;;;;;5028416;28;20088;-84
2022/03/29 07:40:37;;;;;;;21.85;11.88;;;;;;;;;;5047216;28;20106;-84
2022/03/29 07:43:04;;;;;;;22.67;10.82;;;;;;;;;;5045059;28;20512;-83
2022/03/29 07:45:31;;;;;;;22.63;11.82;;;;;;;;;;5040479;28;20045;-83
2022/03/29 07:47:57;;;;;;;23.80;11.45;;;;;;;;;;5043447;28;20502;-83
2022/03/29 07:50:26;;;;;;;19.02;11.05;;;;;;;;;;5045954;28;20045;-84
2022/03/29 07:52:54;;;;;;;21.13;11.00;;;;;;;;;;5043531;28;20049;-85
2022/03/29 07:55:22;;;;;;;21.70;10.95;;;;;;;;;;5044943;28;20045;-85
2022/03/29 07:57:48;;;;;;;23.23;11.70;;;;;;;;;;5045425;28;20654;-85
2022/03/29 08:00:35;;;;;;;17.20;10.13;;;;;;;;;;5040302;28;20041;-84
2022/03/29 08:03:03;;;;;;;20.67;10.75;;;;;;;;;;5046624;28;20494;-83
2022/03/29 08:05:30;;;;;;;22.10;11.90;;;;;;;;;;5070762;28;20052;-84
2022/03/29 08:07:58;;;;;;;18.92;10.52;;;;;;;;;;5070135;28;20494;-84
2022/03/29 08:10:27;;;;;;;19.85;11.20;;;;;;;;;;5066699;28;20105;-84
2022/03/29 08:12:54;;;;;;;19.33;10.93;;;;;;;;;;5066883;28;20075;-84
2022/03/29 08:15:21;;;;;;;22.00;11.70;;;;;;;;;;5063995;28;20135;-84
2022/03/29 08:17:48;;;;;;;15.35;10.00;;;;;;;;;;5068166;28;20076;-84
2022/03/29 08:20:15;;;;;;;19.02;11.50;;;;;;;;;;5068870;28;20159;-83
2022/03/29 08:22:44;;;;;;;15.65;10.00;;;;;;;;;;5068880;28;20136;-84
2022/03/29 08:25:13;;;;;;;20.05;10.55;;;;;;;;;;5071479;28;20139;-84
2022/03/29 08:27:41;;;;;;;18.85;11.55;;;;;;;;;;5067438;28;20087;-83
2022/03/29 08:30:09;;;;;;;18.73;10.88;;;;;;;;;;5070419;28;20072;-83
2022/03/29 08:32:36;;;;;;;19.67;10.73;;;;;;;;;;5077777;28;20509;-84
2022/03/29 08:35:03;;;;;;;17.92;10.90;;;;;;;;;;5071929;28;20049;-84
2022/03/29 08:37:30;;;;;;;19.65;10.32;;;;;;;;;;5070156;28;20056;-85
2022/03/29 08:39:56;;;;;;;19.48;10.35;;;;;;;;;;5071238;28;20041;-85
2022/03/29 08:42:23;;;;;;;18.23;10.15;;;;;;;;;;5071300;28;20068;-84
2022/03/29 08:44:51;;;;;;;16.08;10.57;;;;;;;;;;5071701;28;20052;-84
2022/03/29 08:47:18;;;;;;;19.30;9.98;;;;;;;;;;5068820;28;20079;-85
2022/03/29 08:49:48;;;;;;;22.45;11.10;;;;;;;;;;5054886;28;20053;-85
2022/03/29 08:52:17;;;;;;;16.67;9.90;;;;;;;;;;5071736;28;20109;-86
2022/03/29 08:54:43;;;;;;;15.35;9.15;;;;;;;;;;5070262;28;20037;-85
2022/03/29 08:57:10;;;;;;;16.90;10.27;;;;;;;;;;5069581;28;20175;-85
2022/03/29 08:59:37;;;;;;;18.88;10.05;;;;;;;;;;5069021;28;20048;-84
2022/03/29 09:02:11;;;;;;;15.73;9.18;;;;;;;;;;5068975;28;20068;-86
2022/03/29 09:04:37;;;;;;;16.20;10.00;;;;;;;;;;5069072;28;20110;-84
2022/03/29 09:07:04;;;;;;;17.42;10.23;;;;;;;;;;5065091;28;20044;-83
2022/03/29 09:09:32;;;;;;;18.45;9.98;;;;;;;;;;5065611;28;20080;-84
2022/03/29 09:12:01;;;;;;;18.42;9.50;;;;;;;;;;5064616;28;20048;-84
2022/03/29 09:14:29;;;;;;;18.92;11.85;;;;;;;;;;5063366;28;20044;-84
2022/03/29 09:16:56;;;;;;;15.45;9.55;;;;;;;;;;5054645;28;20060;-84
2022/03/29 09:19:25;;;;;;;15.13;9.77;;;;;;;;;;5067228;28;20082;-84
2022/03/29 09:21:55;;;;;;;17.20;10.00;;;;;;;;;;5070010;28;20040;-84
2022/03/29 09:24:22;;;;;;;17.00;10.70;;;;;;;;;;5066542;28;20556;-84
2022/03/29 09:26:54;;;;;;;15.70;9.80;;;;;;;;;;5067518;28;20044;-84
2022/03/29 09:29:22;;;;;;;15.23;9.80;;;;;;;;;;5070577;28;20049;-84
2022/03/29 09:32:03;;;;;;;18.00;10.48;;;;;;;;;;5068839;28;20126;-84
2022/03/29 09:34:31;;;;;;;16.35;9.50;;;;;;;;;;5068711;28;20476;-85
2022/03/29 09:36:59;;;;;;;16.77;9.73;;;;;;;;;;5064176;28;20068;-85
2022/03/29 09:39:31;;;;;;;15.82;9.57;;;;;;;;;;5064342;28;20084;-85
2022/03/29 09:41:59;;;;;;;14.77;9.82;;;;;;;;;;5063759;28;20049;-85
2022/03/29 09:44:34;;;;;;;17.20;9.90;;;;;;;;;;5065193;28;20071;-84
2022/03/29 09:47:04;;;;;;;16.75;9.75;;;;;;;;;;5068045;28;20495;-84
2022/03/29 09:49:49;;;;;;;16.33;10.50;;;;;;;;;;5066793;28;20048;-85
2022/03/29 09:52:17;;;;;;;18.77;10.35;;;;;;;;;;5062041;28;20510;-84
2022/03/29 09:55:05;;;;;;;16.63;10.15;;;;;;;;;;5066771;28;20045;-85
2022/03/29 09:57:35;;;;;;;17.13;9.63;;;;;;;;;;5064718;28;20460;-85
2022/03/29 10:00:02;;;;;;;15.07;9.88;;;;;;;;;;5063218;28;20106;-84
2022/03/29 10:02:34;;;;;;;14.25;9.88;;;;;;;;;;5064885;28;20320;-85
2022/03/29 10:05:03;;;;;;;14.30;9.55;;;;;;;;;;5062761;28;20060;-85
2022/03/29 10:07:31;;;;;;;16.80;10.82;;;;;;;;;;5063373;28;20056;-85
2022/03/29 10:09:57;;;;;;;16.52;9.43;;;;;;;;;;5064179;28;20052;-85
2022/03/29 10:12:24;;;;;;;17.23;9.82;;;;;;;;;;5062918;28;20044;-85
2022/03/29 10:14:51;;;;;;;16.48;11.02;;;;;;;;;;5062061;28;20485;-85
2022/03/29 10:17:19;;;;;;;20.77;10.65;;;;;;;;;;5059339;28;20094;-85
2022/03/29 10:19:47;;;;;;;18.33;10.18;;;;;;;;;;5072104;28;20468;-85
2022/03/29 10:22:15;;;;;;;19.27;9.70;;;;;;;;;;5075809;28;20051;-84
2022/03/29 10:24:42;;;;;;;21.35;12.18;;;;;;;;;;5072260;28;20103;-84
2022/03/29 10:27:09;;;;;;;15.20;10.00;;;;;;;;;;5068338;28;20559;-84
2022/03/29 10:29:38;;;;;;;16.05;10.75;;;;;;;;;;5066154;28;20075;-85
2022/03/29 10:32:06;;;;;;;16.73;9.93;;;;;;;;;;5066807;28;20088;-85
2022/03/29 10:34:37;;;;;;;15.32;9.50;;;;;;;;;;5064186;28;20049;-85
2022/03/29 10:37:12;;;;;;;19.25;10.85;;;;;;;;;;5064422;28;20080;-85
2022/03/29 10:39:49;;;;;;;17.75;10.18;;;;;;;;;;5063206;28;20409;-85
2022/03/29 10:42:36;;;;;;;17.70;10.20;;;;;;;;;;5058013;28;20056;-84
2022/03/29 10:45:20;;;;;;;17.20;9.98;;;;;;;;;;5059297;28;20080;-85
2022/03/29 10:47:47;;;;;;;15.88;10.60;;;;;;;;;;5063057;28;20041;-85
2022/03/29 10:50:16;;;;;;;16.23;9.98;;;;;;;;;;5061701;28;20437;-84
2022/03/29 10:52:44;;;;;;;15.05;9.85;;;;;;;;;;5061431;28;20070;-84
2022/03/29 10:55:21;;;;;;;18.27;11.15;;;;;;;;;;5059920;28;20077;-85
2022/03/29 10:58:13;;;;;;;21.52;11.98;;;;;;;;;;5058980;28;20563;-85
2022/03/29 11:00:47;;;;;;;15.35;9.55;;;;;;;;;;5065364;28;20040;-85
2022/03/29 11:03:33;;;;;;;15.80;9.82;;;;;;;;;;5061338;28;20094;-85
2022/03/29 11:06:08;;;;;;;20.23;10.88;;;;;;;;;;5052113;28;20061;-84
2022/03/29 11:08:36;;;;;;;15.95;9.38;;;;;;;;;;5053683;28;20075;-85
2022/03/29 11:11:05;;;;;;;17.20;9.90;;;;;;;;;;5056915;28;20106;-84
2022/03/29 11:13:34;;;;;;;15.02;9.23;;;;;;;;;;5064805;28;20075;-84
2022/03/29 11:16:02;;;;;;;16.50;9.52;;;;;;;;;;5067390;28;20070;-84
2022/03/29 11:18:40;;;;;;;19.67;10.90;;;;;;;;;;5061112;28;20072;-84
2022/03/29 11:21:07;;;;;;;20.35;10.48;;;;;;;;;;5055779;28;20083;-85
2022/03/29 11:23:35;;;;;;;17.25;10.68;;;;;;;;;;5052601;28;20443;-84
2022/03/29 11:26:10;;;;;;;17.75;9.57;;;;;;;;;;5051579;28;20055;-84
2022/03/29 11:28:37;;;;;;;17.67;9.68;;;;;;;;;;5056792;28;20045;-84
2022/03/29 11:31:04;;;;;;;18.38;10.00;;;;;;;;;;5052234;28;20085;-84
2022/03/29 11:33:31;;;;;;;22.02;10.15;;;;;;;;;;5057370;28;20076;-85
2022/03/29 11:35:58;;;;;;;14.15;9.02;;;;;;;;;;5053806;28;20052;-86
2022/03/29 11:38:24;;;;;;;16.40;9.32;;;;;;;;;;5047712;28;20076;-85
2022/03/29 11:40:51;;;;;;;16.85;9.40;;;;;;;;;;5053359;28;20048;-84
2022/03/29 11:43:24;;;;;;;15.93;9.70;;;;;;;;;;5050571;28;20084;-85
2022/03/29 11:45:53;;;;;;;20.98;9.95;;;;;;;;;;5059564;28;20460;-85
2022/03/29 11:48:21;;;;;;;19.98;9.05;;;;;;;;;;5057426;28;20084;-85
2022/03/29 11:50:49;;;;;;;13.60;9.20;;;;;;;;;;5052447;28;20076;-85
2022/03/29 11:53:18;;;;;;;16.15;9.70;;;;;;;;;;5059237;28;20486;-85
2022/03/29 11:55:45;;;;;;;15.43;9.13;;;;;;;;;;5065847;28;20420;-85
2022/03/29 11:58:21;;;;;;;15.18;9.23;;;;;;;;;;5056709;28;20048;-85
2022/03/29 12:00:49;;;;;;;13.18;9.38;;;;;;;;;;5059604;28;20057;-84
2022/03/29 12:03:31;;;;;;;11.70;8.13;;;;;;;;;;5060835;28;20083;-85
2022/03/29 12:06:06;;;;;;;15.35;8.63;;;;;;;;;;5046219;28;20490;-85
2022/03/29 12:08:56;;;;;;;13.30;8.50;;;;;;;;;;5048275;28;20118;-85
2022/03/29 12:11:25;;;;;;;13.15;8.77;;;;;;;;;;5046228;28;20353;-85
2022/03/29 12:14:04;;;;;;;15.55;9.43;;;;;;;;;;5047185;28;20044;-86
2022/03/29 12:16:34;;;;;;;17.33;9.05;;;;;;;;;;5045723;28;20119;-82
2022/03/29 12:19:01;;;;;;;14.95;9.00;;;;;;;;;;5047381;28;20049;-82
2022/03/29 12:21:27;;;;;;;13.73;8.80;;;;;;;;;;5046964;28;20095;-82
2022/03/29 12:24:02;;;;;;;19.30;8.98;;;;;;;;;;5046624;28;20053;-80
2022/03/29 12:26:29;;;;;;;12.77;8.13;;;;;;;;;;5046941;28;20098;-81
2022/03/29 12:28:56;;;;;;;17.90;8.63;;;;;;;;;;5045509;28;20045;-83
2022/03/29 12:31:24;;;;;;;12.20;8.75;;;;;;;;;;5045686;28;20072;-83
2022/03/29 12:33:53;;;;;;;12.48;8.18;;;;;;;;;;5046816;28;20486;-83
2022/03/29 12:36:20;;;;;;;11.70;8.07;;;;;;;;;;5045810;28;20044;-83
2022/03/29 12:38:48;;;;;;;12.57;8.13;;;;;;;;;;5046518;28;20079;-84
2022/03/29 12:41:17;;;;;;;13.23;8.30;;;;;;;;;;5046989;28;20053;-83
2022/03/29 12:43:53;;;;;;;13.70;7.78;;;;;;;;;;5046622;28;20087;-83
2022/03/29 12:46:19;;;;;;;14.77;8.18;;;;;;;;;;5049971;28;20513;-82
2022/03/29 12:48:48;;;;;;;15.93;8.35;;;;;;;;;;5049236;28;20110;-83
2022/03/29 12:51:16;;;;;;;12.77;8.57;;;;;;;;;;5049967;28;20148;-82
2022/03/29 12:53:55;;;;;;;10.70;7.18;;;;;;;;;;5050652;28;20486;-83
2022/03/29 12:56:28;;;;;;;15.60;8.25;;;;;;;;;;5050688;28;20071;-83
2022/03/29 12:58:55;;;;;;;12.88;8.73;;;;;;;;;;5051034;28;20479;-83
2022/03/29 13:01:28;;;;;;;16.38;8.88;;;;;;;;;;5052153;28;20138;-83
2022/03/29 13:04:05;;;;;;;15.65;8.30;;;;;;;;;;5052867;28;20524;-83
2022/03/29 13:06:43;;;;;;;13.38;8.20;;;;;;;;;;5070448;28;20532;-83
2022/03/29 13:09:14;;;;;;;13.32;8.45;;;;;;;;;;5071302;28;20075;-85
2022/03/29 13:11:41;;;;;;;11.73;7.68;;;;;;;;;;5070270;28;20048;-85
2022/03/29 13:14:09;;;;;;;13.48;8.50;;;;;;;;;;5070605;28;20125;-86
2022/03/29 13:16:35;;;;;;;13.95;8.65;;;;;;;;;;5069693;28;20064;-84
2022/03/29 13:19:10;;;;;;;13.65;8.57;;;;;;;;;;5069560;28;20045;-85
2022/03/29 13:21:38;;;;;;;13.07;7.05;;;;;;;;;;5069054;28;20106;-84
2022/03/29 13:24:15;;;;;;;17.33;8.13;;;;;;;;;;5067293;28;20045;-85
2022/03/29 13:26:44;;;;;;;13.05;7.68;;;;;;;;;;5068380;28;20452;-84
2022/03/29 13:29:12;;;;;;;14.57;8.15;;;;;;;;;;5069321;28;20053;-84
2022/03/29 13:31:39;;;;;;;12.60;8.05;;;;;;;;;;5069499;28;20079;-85
2022/03/29 13:34:09;;;;;;;15.98;8.75;;;;;;;;;;5069464;28;20048;-85
2022/03/29 13:36:36;;;;;;;17.33;8.93;;;;;;;;;;5068992;28;20397;-85
2022/03/29 13:39:03;;;;;;;12.07;7.85;;;;;;;;;;5068965;28;20106;-85
2022/03/29 13:41:31;;;;;;;14.55;8.30;;;;;;;;;;5068523;28;20072;-85
2022/03/29 13:44:00;;;;;;;14.27;8.57;;;;;;;;;;5070274;28;20072;-85
2022/03/29 13:46:26;;;;;;;12.88;7.15;;;;;;;;;;5069371;28;20592;-85
2022/03/29 13:48:53;;;;;;;13.75;6.93;;;;;;;;;;5070546;28;20060;-85
2022/03/29 13:51:20;;;;;;;12.70;7.25;;;;;;;;;;5069238;28;20135;-85
2022/03/29 13:53:47;;;;;;;11.93;7.18;;;;;;;;;;5069517;28;20540;-85
2022/03/29 13:56:15;;;;;;;14.68;7.95;;;;;;;;;;5068611;28;20779;-85
2022/03/29 13:58:43;;;;;;;11.65;6.90;;;;;;;;;;5070871;28;20051;-85
2022/03/29 14:01:10;;;;;;;13.13;7.35;;;;;;;;;;5064569;28;20079;-84
2022/03/29 14:03:36;;;;;;;13.88;7.57;;;;;;;;;;5059942;28;20135;-85
2022/03/29 14:06:03;;;;;;;12.02;7.75;;;;;;;;;;5059546;28;20084;-85
2022/03/29 14:08:31;;;;;;;10.82;7.47;;;;;;;;;;5062417;28;20464;-84
2022/03/29 14:10:58;;;;;;;14.95;7.63;;;;;;;;;;5060305;28;20119;-84
2022/03/29 14:13:27;;;;;;;13.40;7.03;;;;;;;;;;5062398;28;20500;-84
2022/03/29 14:15:56;;;;;;;12.73;7.07;;;;;;;;;;5060186;28;20110;-84
2022/03/29 14:18:23;;;;;;;16.83;7.53;;;;;;;;;;5059347;28;20149;-84
2022/03/29 14:20:51;;;;;;;13.27;6.70;;;;;;;;;;5058655;28;20486;-84
2022/03/29 14:23:19;;;;;;;16.40;7.60;;;;;;;;;;5059336;28;20098;-84
2022/03/29 14:25:46;;;;;;;17.33;7.55;;;;;;;;;;5063390;28;20052;-84
2022/03/29 14:28:12;;;;;;;13.18;6.53;;;;;;;;;;5059967;28;20136;-84
2022/03/29 14:30:40;;;;;;;11.32;5.97;;;;;;;;;;5063906;28;20686;-84
2022/03/29 14:33:09;;;;;;;11.23;5.70;;;;;;;;;;5059256;28;20048;-84
2022/03/29 14:35:39;;;;;;;17.63;7.13;;;;;;;;;;5060523;28;20095;-84
2022/03/29 14:38:06;;;;;;;12.57;6.70;;;;;;;;;;5061109;28;20053;-84
2022/03/29 14:40:33;;;;;;;13.32;6.78;;;;;;;;;;5065779;28;20143;-84
2022/03/29 14:43:01;;;;;;;14.82;6.55;;;;;;;;;;5063920;28;20098;-84